Time;durP1;ratioP1;P1;durP2;ratioP2;P2;SDS_P1;SDS_P2;PMS_P1;PMS_P2;Temp;Humidity;BMP_temperature;BMP_pressure;BME280_temperature;BME280_humidity;BME280_pressure;Samples;Min_cycle;Max_cycle;Signal;HPM_P1;HPM_P2
2023/08/22 00:00:40;;;;;;;3.30;2.15;;;;;;;17.69;84.91;101995.78;5054212;28;20029;-89
2023/08/22 00:03:06;;;;;;;2.87;2.30;;;;;;;17.62;84.56;101981.09;5052920;28;20048;-89
2023/08/22 00:05:32;;;;;;;2.30;2.10;;;;;;;17.57;85.01;101965.44;5053290;28;20055;-90
2023/08/22 00:08:13;;;;;;;2.28;2.08;;;;;;;17.55;85.31;101969.91;5054406;28;20047;-89
2023/08/22 00:10:38;;;;;;;2.35;2.10;;;;;;;17.67;85.23;101990.56;5052735;28;20397;-89
2023/08/22 00:13:04;;;;;;;3.47;2.20;;;;;;;17.68;85.31;101992.28;5041250;28;20032;-90
2023/08/22 00:15:30;;;;;;;2.10;1.97;;;;;;;17.63;85.52;101981.03;5037297;28;20020;-89
2023/08/22 00:18:10;;;;;;;2.00;1.90;;;;;;;17.66;85.63;101987.97;5037556;28;20022;-90
2023/08/22 00:20:36;;;;;;;2.05;1.85;;;;;;;17.59;85.64;101982.91;5037341;28;20132;-89
2023/08/22 00:23:03;;;;;;;1.93;1.80;;;;;;;17.60;85.56;101989.00;5037692;28;20053;-89
2023/08/22 00:25:29;;;;;;;1.60;1.50;;;;;;;17.54;85.69;101979.53;5038542;28;20304;-89
2023/08/22 00:27:54;;;;;;;1.70;1.60;;;;;;;17.59;85.75;101987.28;5037997;28;20112;-88
2023/08/22 00:30:34;;;;;;;1.60;1.50;;;;;;;17.54;85.91;101983.91;5030688;28;20041;-89
2023/08/22 00:33:00;;;;;;;2.35;1.48;;;;;;;17.51;86.20;101978.75;5037941;28;20034;-89
2023/08/22 00:35:28;;;;;;;1.60;1.50;;;;;;;17.51;85.83;101978.75;5036991;28;20028;-89
2023/08/22 00:38:04;;;;;;;;;;;;;;;;;;;;;
2023/08/22 00:40:32;;;;;;;2.58;1.80;;;;;;;17.42;86.24;101958.84;5015344;28;20029;-89
2023/08/22 00:42:58;;;;;;;2.05;1.90;;;;;;;17.47;86.25;101972.72;5037485;28;20028;-89
2023/08/22 00:45:23;;;;;;;2.73;2.20;;;;;;;17.44;86.33;101962.28;5035828;28;20021;-88
2023/08/22 00:47:49;;;;;;;3.23;2.20;;;;;;;17.52;86.40;101981.31;5037502;28;20488;-88
2023/08/22 00:50:36;;;;;;;2.87;2.00;;;;;;;17.51;86.44;101974.34;5039096;28;20025;-89
2023/08/22 00:53:01;;;;;;;2.40;2.05;;;;;;;17.42;86.83;101959.72;5036313;28;20079;-89
2023/08/22 00:55:27;;;;;;;1.75;1.65;;;;;;;17.46;86.76;101965.75;5037232;28;20487;-89
2023/08/22 00:58:05;;;;;;;1.60;1.50;;;;;;;17.41;87.08;101952.75;5036646;28;20021;-88
2023/08/22 01:00:30;;;;;;;1.55;1.35;;;;;;;17.38;86.84;101949.34;5037948;28;20037;-89
2023/08/22 01:02:57;;;;;;;1.53;1.43;;;;;;;17.46;87.21;101965.75;5037855;28;20018;-89
2023/08/22 01:05:46;;;;;;;1.55;1.45;;;;;;;17.42;87.21;101964.09;5037392;28;20029;-89
2023/08/22 01:08:35;;;;;;;1.20;1.20;;;;;;;17.41;87.48;101963.25;5037144;28;20052;-89
2023/08/22 01:11:10;;;;;;;1.40;1.30;;;;;;;17.38;87.45;101963.31;5038207;28;20029;-89
2023/08/22 01:13:54;;;;;;;1.25;1.15;;;;;;;17.34;87.31;101961.66;5036612;28;20045;-89
2023/08/22 01:16:20;;;;;;;1.30;1.20;;;;;;;17.30;87.50;101957.41;5036927;28;20025;-89
2023/08/22 01:18:46;;;;;;;1.67;1.40;;;;;;;17.25;87.66;101960.16;5036775;28;20029;-89
2023/08/22 01:21:29;;;;;;;1.30;1.20;;;;;;;17.26;87.77;101961.88;5036763;28;20061;-89
2023/08/22 01:23:54;;;;;;;1.35;1.23;;;;;;;17.11;87.69;101943.91;5036237;28;20022;-88
2023/08/22 01:26:19;;;;;;;1.40;1.30;;;;;;;17.16;88.01;101959.53;5043429;22;20021;-89
2023/08/22 01:29:09;;;;;;;1.80;1.70;;;;;;;17.12;87.86;101956.97;5056477;28;20088;-89
2023/08/22 01:32:01;;;;;;;1.92;1.80;;;;;;;17.12;88.08;101956.97;5056166;28;20512;-89
2023/08/22 01:34:29;;;;;;;2.28;2.03;;;;;;;17.03;88.08;101927.50;5055609;28;20057;-89
2023/08/22 01:36:56;;;;;;;1.90;1.80;;;;;;;17.05;88.04;101933.59;5056315;28;20021;-89
2023/08/22 01:39:35;;;;;;;2.15;1.60;;;;;;;17.00;88.58;101931.03;5056864;28;20372;-89
2023/08/22 01:42:01;;;;;;;1.70;1.60;;;;;;;17.11;88.28;101955.25;5056242;28;20033;-89
2023/08/22 01:44:28;;;;;;;2.25;1.50;;;;;;;17.05;88.27;101939.66;5055891;28;20029;-89
2023/08/22 01:46:54;;;;;;;1.63;1.52;;;;;;;17.02;88.59;101937.13;5056723;28;20021;-89
2023/08/22 01:49:37;;;;;;;1.53;1.43;;;;;;;16.97;88.66;101925.91;5042820;28;20040;-88
2023/08/22 01:52:03;;;;;;;1.70;1.60;;;;;;;17.08;88.76;101939.59;5035769;28;20040;-88
2023/08/22 01:54:28;;;;;;;1.48;1.35;;;;;;;17.05;88.71;101944.91;5034553;28;20029;-89
2023/08/22 01:57:09;;;;;;;1.30;1.20;;;;;;;17.05;89.00;101941.44;5034847;28;20390;-89
2023/08/22 01:59:34;;;;;;;1.25;1.15;;;;;;;16.94;88.74;101924.19;5034232;28;20060;-88
2023/08/22 02:02:00;;;;;;;1.20;1.20;;;;;;;17.03;88.97;101938.84;5034187;28;20045;-88
2023/08/22 02:04:25;;;;;;;1.20;1.10;;;;;;;17.07;88.84;101950.09;5034253;28;20036;-89
2023/08/22 02:06:50;;;;;;;1.40;1.30;;;;;;;17.04;89.14;101939.72;5034317;28;20026;-88
2023/08/22 02:09:15;;;;;;;1.30;1.20;;;;;;;17.00;89.31;101932.81;5034247;28;20067;-88
2023/08/22 02:11:41;;;;;;;1.30;1.20;;;;;;;17.02;89.20;101941.50;5034480;28;20069;-89
2023/08/22 02:14:06;;;;;;;1.00;1.00;;;;;;;16.98;89.43;101935.50;5033844;28;20053;-88
2023/08/22 02:16:33;;;;;;;1.30;1.20;;;;;;;16.98;89.34;101935.50;5033497;28;20022;-88
2023/08/22 02:18:58;;;;;;;;;;;;;;;16.99;89.59;101934.59;5034836;28;20029;-89
2023/08/22 02:21:24;;;;;;;1.60;1.50;;;;;;;16.94;89.63;101923.34;5043903;28;19912;-88
2023/08/22 02:23:49;;;;;;;1.50;1.40;;;;;;;16.94;89.55;101924.19;5053791;28;20056;-89
2023/08/22 02:26:33;;;;;;;1.33;1.23;;;;;;;16.94;89.75;101928.59;5053724;28;20072;-88
2023/08/22 02:28:59;;;;;;;1.38;1.27;;;;;;;16.86;89.84;101910.38;5053750;28;20380;-88
2023/08/22 02:31:25;;;;;;;1.50;1.40;;;;;;;16.93;89.69;101924.22;5053907;28;20029;-88
2023/08/22 02:33:50;;;;;;;2.28;1.70;;;;;;;16.91;89.50;101924.25;5053200;28;20108;-88
2023/08/22 02:36:30;;;;;;;1.60;1.50;;;;;;;16.92;89.86;101920.75;5052882;28;20083;-87
2023/08/22 02:38:55;;;;;;;1.50;1.40;;;;;;;16.87;90.06;101913.88;5053541;28;20032;-88
2023/08/22 02:41:21;;;;;;;1.53;1.43;;;;;;;16.90;89.78;101924.28;5053223;28;20025;-88
2023/08/22 02:43:46;;;;;;;1.50;1.40;;;;;;;16.83;90.14;101913.94;5053305;28;20025;-89
2023/08/22 02:46:32;;;;;;;1.53;1.20;;;;;;;16.83;90.21;101919.19;5053527;28;20170;-88
2023/08/22 02:48:57;;;;;;;1.60;1.48;;;;;;;16.76;90.36;101909.78;5053484;28;20037;-88
2023/08/22 02:51:23;;;;;;;1.30;1.20;;;;;;;16.87;90.26;101927.84;5052528;28;20370;-88
2023/08/22 02:53:48;;;;;;;1.27;1.20;;;;;;;16.84;90.59;101920.03;5053474;28;20029;-89
2023/08/22 02:56:23;;;;;;;1.67;1.30;;;;;;;16.73;90.05;101906.34;5051751;28;20167;-89
2023/08/22 02:58:48;;;;;;;1.95;1.65;;;;;;;16.82;90.48;101924.50;5053207;28;20287;-88
2023/08/22 03:01:13;;;;;;;1.30;1.20;;;;;;;16.73;90.71;101908.94;5052790;28;20035;-88
2023/08/22 03:03:39;;;;;;;1.07;1.07;;;;;;;16.72;90.89;101907.25;5053396;28;20033;-88
2023/08/22 03:06:22;;;;;;;1.23;1.20;;;;;;;16.68;90.82;101902.09;5053252;28;20021;-88
2023/08/22 03:08:48;;;;;;;3.42;2.20;;;;;;;16.74;90.97;101919.41;5053638;28;20402;-89
2023/08/22 03:11:14;;;;;;;3.90;2.47;;;;;;;16.78;90.84;101926.28;5052572;28;20028;-88
2023/08/22 03:13:39;;;;;;;6.50;3.60;;;;;;;16.68;90.90;101912.56;5044260;28;20033;-89
2023/08/22 03:16:20;;;;;;;7.50;3.70;;;;;;;16.65;91.16;101917.03;5033670;28;20036;-89
2023/08/22 03:18:46;;;;;;;6.63;3.55;;;;;;;16.71;90.96;101911.63;5032895;28;20140;-87
2023/08/22 03:21:11;;;;;;;4.28;3.00;;;;;;;16.64;90.94;101917.91;5033457;28;20064;-89
2023/08/22 03:23:51;;;;;;;4.53;2.70;;;;;;;16.59;91.25;101904.06;5033758;28;20025;-90
2023/08/22 03:26:17;;;;;;;3.25;2.45;;;;;;;16.57;91.08;101900.59;5042850;28;20041;-89
2023/08/22 03:28:42;;;;;;;3.60;2.33;;;;;;;16.66;91.31;101918.75;5053095;28;20044;-89
2023/08/22 03:31:07;;;;;;;2.73;2.00;;;;;;;16.59;91.32;101914.53;5052931;28;20036;-90
2023/08/22 03:33:59;;;;;;;3.30;2.20;;;;;;;16.64;91.56;101923.16;5053469;28;20062;-89
2023/08/22 03:36:27;;;;;;;2.67;2.20;;;;;;;16.62;91.45;101930.19;5052721;28;20581;-89
2023/08/22 03:38:53;;;;;;;2.20;2.00;;;;;;;16.59;91.44;101914.53;5051348;28;20045;-89
2023/08/22 03:41:18;;;;;;;1.93;1.73;;;;;;;16.61;91.40;101920.59;5052791;28;20037;-89
2023/08/22 03:43:44;;;;;;;1.90;1.80;;;;;;;16.61;91.35;101923.22;5053196;28;20028;-89
2023/08/22 03:46:09;;;;;;;2.03;1.60;;;;;;;16.55;nan;101913.75;5053401;28;20470;-89
2023/08/22 03:48:34;;;;;;;2.10;1.70;;;;;;;16.55;91.71;101920.75;5057039;28;20028;-88
2023/08/22 03:51:00;;;;;;;1.80;1.70;;;;;;;16.49;91.72;101912.13;5056855;28;20025;-89
2023/08/22 03:53:25;;;;;;;2.03;1.80;;;;;;;16.50;91.87;101920.84;5056994;28;20017;-89
2023/08/22 03:56:06;;;;;;;1.73;1.63;;;;;;;16.52;91.77;101919.06;5057014;28;20032;-89
2023/08/22 03:58:31;;;;;;;1.75;1.35;;;;;;;16.35;91.78;101896.75;5057375;28;20059;-89
2023/08/22 04:01:17;;;;;;;1.60;1.50;;;;;;;16.45;91.87;101927.97;5056287;28;20185;-89
2023/08/22 04:03:43;;;;;;;1.75;1.65;;;;;;;16.33;91.82;101900.25;5041701;28;20028;-89
2023/08/22 04:06:08;;;;;;;1.60;1.50;;;;;;;16.41;92.03;101926.28;5056740;28;20032;-89
2023/08/22 04:08:33;;;;;;;1.80;1.70;;;;;;;16.39;91.79;101923.72;5056779;28;20035;-89
2023/08/22 04:10:59;;;;;;;1.80;1.70;;;;;;;16.35;91.83;101922.06;5057212;28;20024;-89
2023/08/22 04:13:24;;;;;;;1.63;1.53;;;;;;;16.35;92.13;101925.56;5056865;28;20017;-89
2023/08/22 04:15:50;;;;;;;1.73;1.63;;;;;;;16.30;92.11;101913.47;5056783;28;20459;-90
2023/08/22 04:18:15;;;;;;;1.97;1.77;;;;;;;16.29;92.09;101906.50;5056843;28;20029;-89
2023/08/22 04:20:42;;;;;;;1.43;1.33;;;;;;;16.25;92.12;101915.31;5056683;28;20350;-89
2023/08/22 04:23:11;;;;;;;1.40;1.30;;;;;;;16.19;92.48;101906.69;5056340;28;20035;-89
2023/08/22 04:25:37;;;;;;;1.50;1.40;;;;;;;16.16;92.28;101898.03;5051923;28;20104;-89
2023/08/22 04:30:49;;;;;;;1.60;1.50;;;;;;;16.02;92.39;101885.25;5017976;28;20300;-89
2023/08/22 04:33:14;;;;;;;1.57;1.47;;;;;;;16.07;92.28;101896.50;5036777;28;20097;-90
2023/08/22 04:35:41;;;;;;;1.80;1.70;;;;;;;16.00;92.42;101905.34;5036517;28;20021;-89
2023/08/22 04:38:19;;;;;;;2.17;1.67;;;;;;;15.95;92.46;101896.75;5032755;28;20034;-89
2023/08/22 04:40:44;;;;;;;2.50;2.10;;;;;;;16.01;92.51;101914.94;5036267;28;20029;-90
2023/08/22 04:43:09;;;;;;;4.53;2.70;;;;;;;16.01;92.73;101913.19;5036569;28;20477;-90
2023/08/22 04:45:35;;;;;;;5.27;3.00;;;;;;;16.03;92.75;101915.75;5036544;28;20040;-90
2023/08/22 04:48:16;;;;;;;5.90;3.30;;;;;;;15.88;92.67;101894.25;5036276;28;20108;-89
2023/08/22 04:50:41;;;;;;;4.10;2.70;;;;;;;15.90;92.74;101897.69;5036268;28;20029;-90
2023/08/22 04:53:06;;;;;;;5.03;3.00;;;;;;;15.87;92.78;101900.41;5036876;28;20163;-90
2023/08/22 04:55:32;;;;;;;4.67;2.80;;;;;;;15.93;93.02;101917.69;5036457;28;20028;-88
2023/08/22 04:58:14;;;;;;;4.67;2.80;;;;;;;15.85;92.75;101904.78;5034771;28;20026;-87
2023/08/22 05:00:41;;;;;;;4.45;2.85;;;;;;;15.91;92.68;101906.44;5035676;28;20033;-89
2023/08/22 05:03:07;;;;;;;4.30;3.00;;;;;;;15.98;92.98;101921.09;5035933;28;20029;-89
2023/08/22 05:05:50;;;;;;;5.23;3.33;;;;;;;15.97;92.78;101915.91;5035819;28;20056;-89
2023/08/22 05:08:16;;;;;;;6.47;3.20;;;;;;;15.89;92.97;101908.22;5035835;28;20032;-89
2023/08/22 05:10:41;;;;;;;5.82;3.85;;;;;;;15.90;92.96;101907.31;5035920;28;20025;-89
2023/08/22 05:13:15;;;;;;;5.60;3.40;;;;;;;15.88;93.26;101902.09;5035211;28;20036;-89
2023/08/22 05:15:42;;;;;;;4.65;3.17;;;;;;;15.97;93.17;101915.91;5035507;28;20107;-89
2023/08/22 05:18:08;;;;;;;5.78;3.47;;;;;;;15.93;93.13;101916.84;5035317;28;20038;-90
2023/08/22 05:20:34;;;;;;;5.78;3.22;;;;;;;15.93;93.32;101922.09;5036213;28;20059;-89
2023/08/22 05:23:14;;;;;;;6.40;3.33;;;;;;;15.92;93.26;101920.38;5035795;28;20025;-89
2023/08/22 05:25:39;;;;;;;4.65;2.88;;;;;;;15.94;93.29;101913.34;5034696;28;20393;-89
2023/08/22 05:28:05;;;;;;;5.03;2.90;;;;;;;15.92;93.58;101915.13;5044764;28;20151;-89
2023/08/22 05:30:30;;;;;;;3.33;2.60;;;;;;;15.97;93.57;101915.91;5040313;28;20057;-90
2023/08/22 05:32:55;;;;;;;3.37;2.50;;;;;;;15.98;93.53;101921.09;5035544;28;20030;-90
2023/08/22 05:35:21;;;;;;;3.33;2.33;;;;;;;16.01;93.73;101920.16;5035452;28;20488;-89
2023/08/22 05:37:55;;;;;;;3.27;2.40;;;;;;;15.99;93.44;101914.09;5025528;28;20041;-90
2023/08/22 05:40:21;;;;;;;3.00;2.20;;;;;;;15.99;93.50;101893.16;5034563;28;20025;-87
2023/08/22 05:42:46;;;;;;;2.03;1.83;;;;;;;15.94;94.25;101882.78;5035144;28;20083;-88
2023/08/22 05:45:11;;;;;;;2.13;1.93;;;;;;;16.09;94.08;101910.41;5035050;28;20305;-90
2023/08/22 05:47:55;;;;;;;1.60;1.50;;;;;;;15.95;94.19;101887.13;5034630;28;20030;-86
2023/08/22 05:50:20;;;;;;;1.55;1.45;;;;;;;16.10;93.82;101919.97;5029821;28;20025;-87
2023/08/22 05:52:46;;;;;;;3.07;1.90;;;;;;;16.17;94.11;101928.56;5034276;28;20109;-89
2023/08/22 05:55:11;;;;;;;2.00;1.83;;;;;;;16.22;94.43;101929.34;5034250;28;20097;-88
2023/08/22 05:57:49;;;;;;;1.60;1.50;;;;;;;16.19;94.19;101913.69;5034397;28;20072;-89
2023/08/22 06:00:16;;;;;;;3.17;1.70;;;;;;;16.33;94.14;101924.72;5034464;28;20030;-89
2023/08/22 06:02:41;;;;;;;;;;;;;;;16.41;94.61;101924.56;5034782;28;20114;-88
2023/08/22 06:05:27;;;;;;;1.90;1.70;;;;;;;16.43;94.79;101930.63;5034322;28;19948;-89
2023/08/22 06:07:53;;;;;;;1.45;1.35;;;;;;;16.52;94.64;101933.03;5034449;28;20118;-90
2023/08/22 06:10:19;;;;;;;;;;;;;;;16.60;94.66;101934.59;5034526;28;20030;-88
2023/08/22 06:13:03;;;;;;;1.50;1.40;;;;;;;16.58;94.67;101923.28;5034940;28;19959;-89
2023/08/22 06:15:28;;;;;;;1.55;1.45;;;;;;;16.65;94.90;101927.50;5034498;28;20760;-89
2023/08/22 06:18:08;;;;;;;1.20;1.20;;;;;;;16.67;95.02;101923.94;5034540;28;20087;-89
2023/08/22 06:20:38;;;;;;;1.00;1.00;;;;;;;16.88;95.62;101936.59;5035069;28;20041;-90
2023/08/22 06:23:04;;;;;;;1.00;1.00;;;;;;;16.94;95.41;101932.06;5034421;28;20026;-89
2023/08/22 06:25:47;;;;;;;0.93;0.93;;;;;;;16.99;95.81;101929.34;5034036;28;20021;-89
2023/08/22 06:28:13;;;;;;;0.68;0.68;;;;;;;17.05;95.61;101930.97;5043930;28;20038;-88
2023/08/22 06:31:01;;;;;;;0.63;0.63;;;;;;;17.18;95.67;101940.22;5040320;28;20099;-89
2023/08/22 06:33:26;;;;;;;0.90;0.90;;;;;;;17.16;95.88;101925.41;5054356;28;20021;-90
2023/08/22 06:36:09;;;;;;;0.53;0.53;;;;;;;17.24;96.08;101926.06;5053174;28;20120;-89
2023/08/22 06:38:35;;;;;;;0.50;0.50;;;;;;;17.34;95.91;101931.94;5047101;28;20453;-89
2023/08/22 06:41:10;;;;;;;0.57;0.57;;;;;;;17.49;95.55;101944.69;5046798;28;20033;-88
2023/08/22 06:43:35;;;;;;;0.40;0.40;;;;;;;17.57;95.69;101937.44;5048409;28;20025;-87
2023/08/22 06:46:01;;;;;;;0.50;0.50;;;;;;;17.65;96.02;101941.63;5053496;28;20029;-84
2023/08/22 06:48:38;;;;;;;0.67;0.67;;;;;;;17.70;95.41;101947.63;5052964;28;20017;-85
2023/08/22 06:51:03;;;;;;;0.80;0.80;;;;;;;17.81;95.17;101958.69;5051373;28;20040;-86
2023/08/22 06:53:29;;;;;;;0.70;0.70;;;;;;;17.84;96.01;101949.84;5053485;28;20021;-86
2023/08/22 06:56:06;;;;;;;1.20;1.17;;;;;;;17.91;96.91;101948.75;5052923;28;20025;-86
2023/08/22 06:58:32;;;;;;;1.30;1.20;;;;;;;18.08;95.57;101964.06;5054314;28;20036;-91
2023/08/22 07:00:57;;;;;;;0.97;0.97;;;;;;;18.13;95.25;101963.94;5053631;28;20029;-79
2023/08/22 07:03:25;;;;;;;0.70;0.70;;;;;;;18.28;95.19;101960.84;5051947;28;20024;-80
2023/08/22 07:05:52;;;;;;;0.80;0.70;;;;;;;18.43;95.67;101964.78;5052668;28;20543;-80
2023/08/22 07:08:19;;;;;;;1.40;1.13;;;;;;;19.41;97.93;101964.31;5053309;28;20048;-94
2023/08/22 07:10:44;;;;;;;0.60;0.60;;;;;;;21.88;95.90;101973.97;5055035;28;20025;-94
2023/08/22 07:13:09;;;;;;;0.70;0.70;;;;;;;24.22;88.45;101975.66;5053895;28;20055;-93
2023/08/22 07:15:35;;;;;;;1.17;1.10;;;;;;;26.02;71.71;101971.31;5054555;28;20051;-96
2023/08/22 07:18:00;;;;;;;0.60;0.60;;;;;;;26.38;76.00;101982.44;5054307;28;20021;-92
2023/08/22 07:20:25;;;;;;;0.77;0.77;;;;;;;26.43;75.86;101982.97;5053345;28;20032;-89
2023/08/22 07:22:51;;;;;;;0.73;0.73;;;;;;;26.45;70.79;101981.06;5053285;28;20071;-89
2023/08/22 07:25:16;;;;;;;0.70;0.70;;;;;;;26.10;71.45;101983.34;5053165;28;20382;-90
2023/08/22 07:27:41;;;;;;;0.70;0.70;;;;;;;25.64;72.29;101985.22;5053376;28;20059;-93
2023/08/22 07:30:07;;;;;;;0.80;0.80;;;;;;;25.09;71.47;101979.59;5051650;28;20033;-93
2023/08/22 07:32:33;;;;;;;0.70;0.70;;;;;;;24.57;73.14;101990.53;5053224;28;20040;-93
2023/08/22 07:34:58;;;;;;;1.33;1.10;;;;;;;24.21;74.40;101981.91;5052779;28;20065;-81
2023/08/22 07:37:23;;;;;;;1.37;1.03;;;;;;;23.82;74.64;101965.41;5052027;28;20021;-80
2023/08/22 07:39:49;;;;;;;1.20;1.10;;;;;;;23.69;75.73;101967.00;5051854;28;20028;-80
2023/08/22 07:42:14;;;;;;;1.90;1.30;;;;;;;23.58;75.12;101970.22;5052658;28;20108;-91
2023/08/22 07:44:39;;;;;;;0.90;0.90;;;;;;;23.43;74.73;101970.09;5049885;28;20021;-92
2023/08/22 07:47:05;;;;;;;1.43;0.93;;;;;;;23.31;76.89;101978.66;5032954;28;20072;-94
2023/08/22 07:49:30;;;;;;;1.60;1.07;;;;;;;23.26;76.97;101972.72;5033990;28;20049;-93
2023/08/22 07:52:11;;;;;;;1.38;1.20;;;;;;;23.16;70.40;101966.16;5032938;28;20022;-93
2023/08/22 07:54:36;;;;;;;1.95;1.75;;;;;;;22.99;74.69;101976.69;5032870;28;20049;-91
2023/08/22 07:57:04;;;;;;;2.60;1.70;;;;;;;22.94;74.46;101978.72;5033325;28;20156;-87
2023/08/22 07:59:29;;;;;;;1.45;1.35;;;;;;;22.86;76.22;101967.63;5032496;28;20047;-89
2023/08/22 08:01:55;;;;;;;2.90;2.00;;;;;;;22.85;74.39;101973.88;5032806;28;20500;-89
2023/08/22 08:04:20;;;;;;;1.60;1.50;;;;;;;22.79;76.83;101976.81;5032437;28;20021;-91
2023/08/22 08:06:48;;;;;;;1.43;1.33;;;;;;;22.72;75.73;101984.19;5032887;28;20113;-92
2023/08/22 08:09:14;;;;;;;1.30;1.20;;;;;;;22.65;77.63;101973.03;5033444;28;20017;-92
2023/08/22 08:11:39;;;;;;;1.37;1.27;;;;;;;22.63;75.71;101977.56;5033266;28;20378;-92
2023/08/22 08:14:05;;;;;;;1.33;1.20;;;;;;;22.61;76.75;101983.84;5032911;28;20049;-91
2023/08/22 08:16:32;;;;;;;1.65;1.45;;;;;;;22.58;76.29;101989.28;5033361;28;20057;-92
2023/08/22 08:18:57;;;;;;;1.42;1.33;;;;;;;22.56;75.97;101992.00;5033724;28;20030;-92
2023/08/22 08:21:23;;;;;;;1.83;1.63;;;;;;;22.50;74.42;102001.09;5032978;28;20032;-90
2023/08/22 08:23:48;;;;;;;1.30;1.10;;;;;;;22.46;75.85;101998.69;5033356;28;20026;-91
2023/08/22 08:26:14;;;;;;;1.10;1.10;;;;;;;22.43;76.79;102002.34;5032974;28;20017;-91
2023/08/22 08:28:40;;;;;;;1.10;1.00;;;;;;;22.43;77.38;102001.47;5032820;28;20045;-89
2023/08/22 08:31:06;;;;;;;1.63;1.10;;;;;;;22.42;76.98;101995.31;5037031;28;20031;-92
2023/08/22 08:33:48;;;;;;;1.27;1.17;;;;;;;22.45;77.10;102003.13;5057222;28;20032;-93
2023/08/22 08:36:13;;;;;;;1.13;1.00;;;;;;;22.40;77.90;101991.00;5055386;28;20032;-87
2023/08/22 08:38:39;;;;;;;1.40;1.30;;;;;;;22.48;77.04;101997.66;5056131;28;20055;-88
2023/08/22 08:41:04;;;;;;;2.03;1.20;;;;;;;22.49;75.71;101996.75;5053754;28;20377;-87
2023/08/22 08:43:32;;;;;;;1.30;0.80;;;;;;;22.56;77.22;102001.75;5055374;28;20078;-88
2023/08/22 08:45:58;;;;;;;1.85;0.90;;;;;;;22.56;77.31;101992.00;5056029;28;20611;-88
2023/08/22 08:48:24;;;;;;;2.50;1.65;;;;;;;22.63;76.19;101982.84;5053904;28;20021;-88
2023/08/22 08:50:50;;;;;;;;;;;;;;;22.72;76.85;101991.28;5046469;28;20385;-88
2023/08/22 08:53:17;;;;;;;2.47;1.55;;;;;;;22.72;75.59;101997.44;5035672;28;19917;-88
2023/08/22 08:55:45;;;;;;;1.13;1.13;;;;;;;22.79;76.60;101992.69;5035540;28;20028;-88
2023/08/22 08:58:10;;;;;;;1.30;1.20;;;;;;;22.81;76.75;101990.84;5043015;28;20036;-88
2023/08/22 09:00:36;;;;;;;1.23;1.13;;;;;;;22.93;76.59;102002.59;5055712;28;20029;-88
2023/08/22 09:03:17;;;;;;;;;;;;;;;23.01;76.90;102002.22;5055515;28;20101;-88
2023/08/22 09:05:45;;;;;;;0.90;0.90;;;;;;;22.97;76.93;101996.22;5039390;28;20015;-89
2023/08/22 09:08:19;;;;;;;0.70;0.70;;;;;;;23.03;76.47;101997.72;5040244;28;20040;-90
2023/08/22 09:10:50;;;;;;;0.70;0.70;;;;;;;23.08;75.62;101998.34;5037730;28;20029;-85
2023/08/22 09:13:16;;;;;;;1.33;1.20;;;;;;;22.97;74.94;101985.63;5034461;28;20037;-88
2023/08/22 09:15:42;;;;;;;0.93;0.90;;;;;;;22.98;75.70;101996.13;5036627;28;20131;-95
2023/08/22 09:18:07;;;;;;;1.40;1.30;;;;;;;22.93;75.33;101999.94;5035807;28;20505;-96
2023/08/22 09:20:33;;;;;;;2.17;1.57;;;;;;;22.85;75.31;101994.19;5036758;28;20116;-96
2023/08/22 09:22:58;;;;;;;1.50;1.40;;;;;;;22.92;76.00;101993.81;5036454;28;20022;-96
2023/08/22 09:25:39;;;;;;;1.47;1.40;;;;;;;22.95;76.00;101996.31;5052634;22;21064;-96
2023/08/22 09:28:10;;;;;;;1.40;1.30;;;;;;;22.92;76.00;101979.69;5059770;28;20037;-96
2023/08/22 09:30:35;;;;;;;1.98;1.52;;;;;;;22.92;74.52;101988.50;5058625;28;20112;-95
2023/08/22 09:33:01;;;;;;;1.77;1.67;;;;;;;22.88;75.19;101984.28;5056095;28;20116;-94
2023/08/22 09:35:48;;;;;;;1.50;1.37;;;;;;;23.01;75.04;102004.88;5056034;28;20090;-94
2023/08/22 09:38:13;;;;;;;2.65;2.17;;;;;;;23.13;75.16;101999.84;5054746;28;20307;-90
2023/08/22 09:41:00;;;;;;;3.20;1.80;;;;;;;23.47;74.73;101999.09;5055357;28;20068;-93
2023/08/22 09:43:28;;;;;;;1.52;1.33;;;;;;;23.66;74.82;101991.88;5055867;28;20078;-93
2023/08/22 09:46:09;;;;;;;1.10;1.10;;;;;;;23.83;74.54;101987.47;5054903;28;20067;-91
2023/08/22 09:48:37;;;;;;;2.25;1.40;;;;;;;23.95;74.09;101985.97;5055681;28;20044;-91
2023/08/22 09:51:19;;;;;;;1.35;1.27;;;;;;;24.08;73.92;102005.59;5055672;28;20037;-90
2023/08/22 09:53:52;;;;;;;3.40;2.10;;;;;;;24.10;71.22;102006.34;5054840;28;20025;-91
2023/08/22 09:56:19;;;;;;;4.30;2.40;;;;;;;23.98;67.15;101991.97;5054847;28;20027;-91
2023/08/22 09:58:59;;;;;;;2.45;1.80;;;;;;;23.87;68.51;102005.75;5054948;28;20029;-91
2023/08/22 10:01:42;;;;;;;2.30;2.10;;;;;;;23.71;71.63;101999.59;5048804;28;20022;-90
2023/08/22 10:04:09;;;;;;;1.55;1.45;;;;;;;23.71;72.94;102008.38;5035262;28;20025;-91
2023/08/22 10:06:37;;;;;;;1.67;1.55;;;;;;;23.75;73.29;101999.34;5041876;28;20049;-89
2023/08/22 10:09:15;;;;;;;2.38;1.85;;;;;;;23.87;72.70;101989.03;5042370;28;20025;-91
2023/08/22 10:11:50;;;;;;;2.60;1.85;;;;;;;24.10;71.28;102014.31;5035071;28;20033;-91
2023/08/22 10:14:37;;;;;;;2.47;1.98;;;;;;;24.25;68.10;102006.47;5034909;28;20058;-91
2023/08/22 10:17:02;;;;;;;3.92;2.10;;;;;;;24.31;69.27;102004.34;5034955;28;20029;-90
2023/08/22 10:19:30;;;;;;;4.73;2.60;;;;;;;24.29;67.65;101997.41;5035655;28;20136;-91
2023/08/22 10:25:17;;;;;;;2.83;2.30;;;;;;;24.73;67.04;101996.72;5034972;28;20090;-92
2023/08/22 10:28:03;;;;;;;4.37;2.20;;;;;;;24.92;65.82;102001.84;5035728;28;20537;-92
2023/08/22 10:30:29;;;;;;;2.20;1.90;;;;;;;24.91;67.00;101996.59;5035015;28;20025;-93
2023/08/22 10:33:25;;;;;;;3.20;2.30;;;;;;;24.92;66.39;102007.16;5034930;28;20028;-93
2023/08/22 10:36:13;;;;;;;3.55;1.60;;;;;;;24.86;66.65;101996.88;5035016;28;20101;-92
2023/08/22 10:39:04;;;;;;;1.58;1.35;;;;;;;24.82;67.34;102001.50;5035792;28;20029;-92
2023/08/22 10:42:00;;;;;;;1.80;1.00;;;;;;;24.88;67.49;101986.19;5033501;28;20049;-90
2023/08/22 10:44:30;;;;;;;;;;;;;;;25.11;62.03;101987.47;4933387;29;20062;-88
2023/08/22 10:47:14;;;;;;;1.27;0.95;;;;;;;25.12;63.76;101987.38;4934747;29;19918;-76
2023/08/22 10:49:43;;;;;;;3.40;1.33;;;;;;;25.13;61.89;101991.75;5008325;28;20033;-88
2023/08/22 10:52:12;;;;;;;1.27;1.17;;;;;;;25.11;61.96;101984.81;5033107;28;20080;-88
2023/08/22 10:55:00;;;;;;;1.38;1.23;;;;;;;25.06;61.13;101989.53;5033321;28;20060;-89
2023/08/22 10:57:27;;;;;;;0.90;0.82;;;;;;;25.14;63.43;101990.81;5033212;28;20032;-89
2023/08/22 10:59:54;;;;;;;0.95;0.90;;;;;;;25.34;64.82;101975.47;5033774;28;20028;-89
2023/08/22 11:02:27;;;;;;;1.13;1.00;;;;;;;25.53;65.10;101985.03;5033155;28;20033;-89
2023/08/22 11:04:55;;;;;;;2.03;1.00;;;;;;;25.60;59.14;101983.69;5034053;28;20038;-89
2023/08/22 11:07:21;;;;;;;0.88;0.80;;;;;;;25.64;63.12;101987.00;5032993;28;20036;-88
2023/08/22 11:09:48;;;;;;;1.00;0.63;;;;;;;25.74;63.06;101989.03;5032906;28;20026;-88
2023/08/22 11:12:18;;;;;;;0.57;0.57;;;;;;;25.87;64.06;101985.59;5032727;28;20039;-87
2023/08/22 11:14:47;;;;;;;0.40;0.40;;;;;;;25.94;63.25;101988.75;5032869;28;20033;-88
2023/08/22 11:17:14;;;;;;;0.65;0.50;;;;;;;25.96;62.40;101990.34;5025957;28;20035;-76
2023/08/22 11:19:40;;;;;;;0.55;0.55;;;;;;;26.00;64.53;101991.88;5033127;28;20053;-89
2023/08/22 11:22:06;;;;;;;1.07;0.97;;;;;;;25.99;63.70;101998.13;5033513;28;20049;-91
2023/08/22 11:24:31;;;;;;;;;;;;;;;26.01;63.62;102003.34;5034064;28;20532;-91
2023/08/22 11:27:00;;;;;;;0.47;0.47;;;;;;;25.94;63.47;101999.38;5033487;28;19917;-90
2023/08/22 11:29:25;;;;;;;0.75;0.70;;;;;;;25.85;61.31;102000.81;5033786;28;20060;-91
2023/08/22 11:31:50;;;;;;;0.53;0.53;;;;;;;25.76;59.50;101994.25;5032925;28;20053;-90
2023/08/22 11:34:16;;;;;;;0.50;0.50;;;;;;;25.71;61.99;101991.03;5033305;28;20022;-91
2023/08/22 11:36:54;;;;;;;0.43;0.43;;;;;;;25.67;59.93;102003.63;5032066;28;20022;-89
2023/08/22 11:39:19;;;;;;;0.30;0.30;;;;;;;25.61;60.85;101997.84;5031815;28;20045;-89
2023/08/22 11:41:46;;;;;;;0.30;0.30;;;;;;;25.54;60.78;102000.03;5032394;28;20018;-90
2023/08/22 11:44:12;;;;;;;0.30;0.30;;;;;;;25.48;62.31;101995.94;5032791;28;20030;-90
2023/08/22 11:46:53;;;;;;;0.28;0.20;;;;;;;25.53;61.28;102011.59;5032658;28;20028;-90